Time;durP1;ratioP1;P1;durP2;ratioP2;P2;SDS_P1;SDS_P2;PMS_P1;PMS_P2;Temp;Humidity;BMP_temperature;BMP_pressure;BME280_temperature;BME280_humidity;BME280_pressure;Samples;Min_cycle;Max_cycle;Signal;HPM_P1;HPM_P2
2021/04/28 00:00:08;;;;;;;10.63;5.20;;;7.90;51.90;;;;;;6215467;23;20192;-82
2021/04/28 00:02:34;;;;;;;7.22;4.50;;;7.90;51.80;;;;;;6239172;23;20149;-83
2021/04/28 00:05:01;;;;;;;7.10;5.53;;;7.90;51.80;;;;;;6242684;23;20151;-82
2021/04/28 00:07:27;;;;;;;6.50;5.20;;;7.80;51.60;;;;;;6218547;23;20208;-81
2021/04/28 00:09:52;;;;;;;12.77;5.30;;;7.80;51.90;;;;;;6192826;23;20186;-81
2021/04/28 00:12:18;;;;;;;7.37;5.33;;;7.70;52.10;;;;;;6243684;23;20176;-82
2021/04/28 00:14:43;;;;;;;9.07;5.93;;;7.80;52.10;;;;;;6189256;23;20169;-82
2021/04/28 00:17:09;;;;;;;7.37;5.07;;;7.60;52.10;;;;;;6191620;23;20144;-83
2021/04/28 00:19:35;;;;;;;9.03;5.10;;;7.60;52.10;;;;;;6208933;23;20160;-85
2021/04/28 00:22:00;;;;;;;9.37;4.70;;;7.60;52.30;;;;;;6228849;23;20172;-83
2021/04/28 00:24:26;;;;;;;8.83;4.97;;;7.60;52.20;;;;;;6230314;23;20149;-86
2021/04/28 00:26:51;;;;;;;7.70;5.17;;;7.60;52.20;;;;;;6202782;23;20591;-83
2021/04/28 00:29:17;;;;;;;8.40;5.47;;;7.40;52.60;;;;;;6232051;23;20153;-85
2021/04/28 00:31:43;;;;;;;9.73;5.30;;;7.50;52.90;;;;;;6206080;23;20169;-84
2021/04/28 00:34:08;;;;;;;8.03;5.77;;;7.30;53.00;;;;;;6228985;23;20157;-83
2021/04/28 00:36:34;;;;;;;7.90;5.67;;;7.50;53.00;;;;;;6202328;23;20153;-83
2021/04/28 00:39:00;;;;;;;8.07;5.40;;;7.30;53.10;;;;;;6204192;23;20157;-84
2021/04/28 00:41:25;;;;;;;8.03;5.27;;;7.30;53.30;;;;;;6228395;23;20180;-83
2021/04/28 00:43:51;;;;;;;6.67;5.00;;;7.50;53.40;;;;;;6178459;23;20603;-82
2021/04/28 00:46:17;;;;;;;8.20;6.07;;;7.40;53.20;;;;;;6226728;23;20168;-83
2021/04/28 00:48:42;;;;;;;7.30;4.73;;;7.30;53.60;;;;;;6230198;23;20145;-84
2021/04/28 00:51:08;;;;;;;8.40;6.60;;;7.30;53.60;;;;;;6201982;23;20628;-83
2021/04/28 00:53:34;;;;;;;9.03;5.93;;;7.30;53.60;;;;;;6208100;23;20153;-84
2021/04/28 00:56:00;;;;;;;7.70;5.77;;;7.00;53.80;;;;;;6232900;23;20456;-84
2021/04/28 00:58:27;;;;;;;11.75;5.22;;;7.30;54.40;;;;;;6234835;23;20152;-82
2021/04/28 01:00:53;;;;;;;9.50;6.28;;;7.20;54.40;;;;;;6230114;23;20191;-84
2021/04/28 01:03:25;;;;;;;9.32;5.57;;;7.10;54.20;;;;;;6231377;23;20149;-85
2021/04/28 01:05:57;;;;;;;6.38;4.45;;;7.20;54.20;;;;;;6202948;23;20175;-85
2021/04/28 01:08:23;;;;;;;10.32;4.35;;;7.00;54.00;;;;;;6204114;23;20590;-85
2021/04/28 01:10:50;;;;;;;5.97;5.13;;;7.00;54.50;;;;;;6173445;23;20188;-84
2021/04/28 01:13:16;;;;;;;6.65;4.85;;;6.80;54.80;;;;;;6147439;23;20705;-83
2021/04/28 01:15:42;;;;;;;8.63;5.25;;;6.80;55.10;;;;;;6224209;23;20149;-83
2021/04/28 01:18:08;;;;;;;13.10;5.73;;;6.90;54.90;;;;;;6196064;23;20187;-83
2021/04/28 01:20:37;;;;;;;6.50;5.00;;;7.00;55.00;;;;;;6223783;23;20420;-82
2021/04/28 01:23:04;;;;;;;7.70;6.13;;;6.80;54.90;;;;;;6173200;23;20391;-83
2021/04/28 01:25:30;;;;;;;5.20;4.50;;;6.90;55.20;;;;;;6196674;23;20276;-84
2021/04/28 01:28:08;;;;;;;7.03;5.53;;;6.80;55.30;;;;;;6224001;23;20323;-83
2021/04/28 01:30:36;;;;;;;7.35;4.80;;;6.60;55.30;;;;;;6197092;23;20172;-84
2021/04/28 01:33:03;;;;;;;8.13;5.10;;;6.60;55.40;;;;;;6222741;23;20214;-84
2021/04/28 01:35:29;;;;;;;8.43;4.35;;;6.70;55.60;;;;;;6224612;23;20238;-83
2021/04/28 01:37:56;;;;;;;6.60;5.43;;;6.80;55.70;;;;;;6149836;23;20166;-83
2021/04/28 01:40:23;;;;;;;7.35;4.47;;;6.70;55.80;;;;;;6198017;23;20172;-84
2021/04/28 01:42:50;;;;;;;8.80;5.82;;;6.80;55.50;;;;;;6172935;23;20157;-83
2021/04/28 01:45:16;;;;;;;7.88;5.90;;;6.80;55.90;;;;;;6222846;23;20672;-84
2021/04/28 01:47:42;;;;;;;6.28;4.82;;;6.80;55.30;;;;;;6197467;23;20149;-84
2021/04/28 01:50:11;;;;;;;6.25;5.32;;;6.70;55.40;;;;;;6224041;23;20175;-84
2021/04/28 01:52:37;;;;;;;11.50;5.40;;;6.60;56.10;;;;;;6223191;23;20164;-84
2021/04/28 01:55:04;;;;;;;7.07;5.57;;;6.60;55.90;;;;;;6224599;23;20137;-83
2021/04/28 01:57:30;;;;;;;17.05;5.82;;;6.60;55.90;;;;;;6172234;23;20183;-84
2021/04/28 01:59:56;;;;;;;13.10;5.77;;;6.60;55.90;;;;;;6221750;23;20177;-83
2021/04/28 02:02:23;;;;;;;7.22;4.90;;;6.50;56.20;;;;;;6196333;23;20397;-83
2021/04/28 02:04:48;;;;;;;11.75;6.03;;;6.50;56.40;;;;;;6223558;23;20176;-83
2021/04/28 02:07:15;;;;;;;14.63;6.60;;;6.50;56.50;;;;;;6223248;23;20222;-83
2021/04/28 02:09:41;;;;;;;9.13;5.53;;;6.60;56.30;;;;;;6196746;23;20547;-84
2021/04/28 02:12:11;;;;;;;10.23;6.03;;;6.70;56.20;;;;;;6195583;23;20156;-85
2021/04/28 02:14:37;;;;;;;8.82;5.95;;;6.60;56.30;;;;;;6222490;23;20163;-83
2021/04/28 02:17:03;;;;;;;7.40;5.40;;;6.70;56.40;;;;;;6221242;23;20172;-83
2021/04/28 02:19:29;;;;;;;7.13;5.57;;;6.70;56.30;;;;;;6196241;23;20240;-84
2021/04/28 02:21:56;;;;;;;10.35;4.88;;;6.50;56.70;;;;;;6170403;23;20235;-82
2021/04/28 02:24:24;;;;;;;7.30;5.53;;;6.50;56.90;;;;;;6220536;23;20149;-81
2021/04/28 02:26:55;;;;;;;9.52;6.38;;;6.50;56.90;;;;;;6222562;23;20149;-83
2021/04/28 02:29:24;;;;;;;8.52;5.68;;;6.40;57.20;;;;;;6221849;23;20288;-84
2021/04/28 02:31:49;;;;;;;10.55;6.32;;;6.50;57.20;;;;;;6229943;23;20237;-83
2021/04/28 02:34:15;;;;;;;8.17;5.70;;;6.60;56.60;;;;;;6198827;23;20148;-84
2021/04/28 02:36:44;;;;;;;10.57;6.57;;;6.50;57.20;;;;;;6181785;23;20238;-84
2021/04/28 02:39:27;;;;;;;8.70;6.05;;;6.50;57.20;;;;;;6227318;23;20144;-83
2021/04/28 02:41:57;;;;;;;9.25;5.00;;;6.30;57.60;;;;;;6194040;23;20172;-83
2021/04/28 02:44:25;;;;;;;16.55;7.47;;;6.50;57.50;;;;;;6221221;23;20155;-85
2021/04/28 02:46:54;;;;;;;15.38;6.63;;;6.50;57.20;;;;;;6219696;23;20156;-85
2021/04/28 02:49:21;;;;;;;7.60;5.30;;;6.20;57.70;;;;;;6222902;23;20486;-84
2021/04/28 02:51:47;;;;;;;13.00;6.15;;;6.40;58.10;;;;;;6194225;23;20184;-84
2021/04/28 02:54:16;;;;;;;12.63;6.82;;;6.40;57.50;;;;;;6168234;23;20187;-84
2021/04/28 02:56:42;;;;;;;9.32;5.53;;;6.20;57.90;;;;;;6147557;23;20153;-84
2021/04/28 02:59:08;;;;;;;12.55;6.43;;;6.30;58.10;;;;;;6193858;23;20487;-83
2021/04/28 03:01:34;;;;;;;9.33;5.87;;;6.30;58.10;;;;;;6169816;23;20184;-85
2021/04/28 03:04:01;;;;;;;8.68;5.97;;;6.40;58.20;;;;;;6194790;23;20164;-84
2021/04/28 03:06:27;;;;;;;12.20;6.90;;;6.50;58.20;;;;;;6220616;23;20605;-83
2021/04/28 03:08:55;;;;;;;11.40;7.30;;;6.40;58.20;;;;;;6221739;23;20153;-83
2021/04/28 03:11:22;;;;;;;11.38;6.40;;;6.40;58.10;;;;;;6222980;23;20168;-82
2021/04/28 03:13:48;;;;;;;9.32;6.40;;;6.40;58.40;;;;;;6195999;23;20164;-84
2021/04/28 03:16:13;;;;;;;8.40;5.43;;;6.40;59.00;;;;;;6220430;23;20157;-82
2021/04/28 03:18:39;;;;;;;13.73;6.10;;;6.30;58.60;;;;;;6220465;23;20422;-84
2021/04/28 03:21:07;;;;;;;11.90;6.13;;;6.20;58.70;;;;;;6193556;23;20462;-83
2021/04/28 03:23:33;;;;;;;7.95;5.32;;;6.20;58.70;;;;;;6194262;23;20228;-84
2021/04/28 03:25:59;;;;;;;7.43;5.65;;;6.10;59.00;;;;;;6193361;23;20161;-82
2021/04/28 03:28:25;;;;;;;8.25;5.80;;;6.10;59.10;;;;;;6168323;23;20152;-82
2021/04/28 03:30:51;;;;;;;13.73;7.25;;;6.10;59.70;;;;;;6219679;23;20165;-81
2021/04/28 03:33:17;;;;;;;9.60;5.90;;;6.20;59.70;;;;;;6219787;23;20200;-82
2021/04/28 03:35:43;;;;;;;7.50;5.77;;;6.00;60.10;;;;;;6168686;23;20157;-82
2021/04/28 03:38:09;;;;;;;10.30;6.20;;;6.00;60.80;;;;;;6219526;23;20149;-82
2021/04/28 03:40:34;;;;;;;11.10;5.57;;;6.00;60.30;;;;;;6220610;23;20257;-81
2021/04/28 03:43:00;;;;;;;11.97;7.33;;;6.00;60.80;;;;;;6218524;23;20144;-83
2021/04/28 03:45:25;;;;;;;10.40;6.33;;;5.90;60.90;;;;;;6219305;23;20206;-82
2021/04/28 03:47:51;;;;;;;14.53;6.63;;;5.80;60.80;;;;;;6220434;23;20156;-82
2021/04/28 03:50:17;;;;;;;9.37;6.43;;;5.80;61.80;;;;;;6192588;23;20176;-82
2021/04/28 03:52:43;;;;;;;14.00;6.60;;;5.90;61.80;;;;;;6218361;23;20149;-81
2021/04/28 03:55:10;;;;;;;12.33;6.70;;;5.90;61.90;;;;;;6167205;23;20157;-82
2021/04/28 03:57:36;;;;;;;11.88;6.30;;;5.90;61.90;;;;;;6191532;23;20152;-82
2021/04/28 04:00:04;;;;;;;9.85;5.88;;;5.80;62.60;;;;;;6166755;23;20267;-82
2021/04/28 04:02:30;;;;;;;10.32;6.88;;;5.70;63.20;;;;;;6191557;23;20176;-83
2021/04/28 04:04:56;;;;;;;9.43;6.20;;;5.80;62.80;;;;;;6192211;23;20237;-83
2021/04/28 04:07:21;;;;;;;12.73;7.37;;;5.80;63.10;;;;;;6193111;23;20181;-81
2021/04/28 04:09:47;;;;;;;9.47;6.70;;;5.80;63.10;;;;;;6167312;23;21801;-81
2021/04/28 04:12:13;;;;;;;8.10;6.63;;;5.80;63.90;;;;;;6193778;23;20157;-83
2021/04/28 04:14:44;;;;;;;10.00;6.80;;;5.70;64.00;;;;;;6169078;23;20160;-83
2021/04/28 04:17:10;;;;;;;11.43;5.50;;;5.80;64.60;;;;;;6194154;23;20279;-82
2021/04/28 04:19:35;;;;;;;13.83;5.80;;;5.70;65.90;;;;;;6194457;23;20149;-82
2021/04/28 04:22:02;;;;;;;11.00;6.70;;;5.70;65.30;;;;;;6193668;23;20185;-82
2021/04/28 04:24:27;;;;;;;11.40;7.50;;;5.60;65.80;;;;;;6221691;23;20168;-81
2021/04/28 04:26:53;;;;;;;14.43;7.00;;;5.70;66.10;;;;;;6202206;23;20145;-84
2021/04/28 04:29:18;;;;;;;10.87;6.30;;;5.70;66.40;;;;;;6227678;23;20152;-82
2021/04/28 04:31:44;;;;;;;9.13;5.90;;;5.40;67.50;;;;;;6221199;23;20184;-82
2021/04/28 04:34:10;;;;;;;8.40;6.03;;;5.50;68.70;;;;;;6198104;23;20168;-83
2021/04/28 04:36:35;;;;;;;12.40;7.80;;;5.50;68.90;;;;;;6198322;23;20153;-82
2021/04/28 04:39:01;;;;;;;9.73;6.43;;;5.50;69.20;;;;;;6226644;23;20622;-82
2021/04/28 04:41:26;;;;;;;10.90;6.30;;;5.40;69.60;;;;;;6227386;23;20230;-82
2021/04/28 04:43:52;;;;;;;9.10;6.60;;;5.50;70.00;;;;;;6228267;23;20153;-82
2021/04/28 04:46:21;;;;;;;13.73;8.70;;;5.60;69.30;;;;;;6228279;23;20149;-82
2021/04/28 04:48:47;;;;;;;13.35;7.70;;;5.70;69.60;;;;;;6200729;23;20149;-83
2021/04/28 04:51:13;;;;;;;9.93;7.38;;;5.70;70.40;;;;;;6200967;23;20200;-81
2021/04/28 04:53:38;;;;;;;11.20;8.13;;;5.80;69.70;;;;;;6178245;23;20161;-82
2021/04/28 04:56:04;;;;;;;8.73;6.30;;;5.80;70.30;;;;;;6228695;23;20152;-81
2021/04/28 04:58:30;;;;;;;17.20;7.95;;;5.90;69.50;;;;;;6228090;23;20149;-81
2021/04/28 05:00:56;;;;;;;15.32;8.35;;;5.90;69.70;;;;;;6227912;23;20184;-81
2021/04/28 05:03:21;;;;;;;12.37;7.57;;;5.90;69.90;;;;;;6174768;23;20156;-81
2021/04/28 05:05:47;;;;;;;10.20;7.33;;;5.80;70.50;;;;;;6199662;23;20199;-82
2021/04/28 05:08:12;;;;;;;14.87;7.73;;;5.90;70.10;;;;;;6206299;23;20144;-81
2021/04/28 05:10:38;;;;;;;15.23;7.97;;;6.00;69.60;;;;;;6201760;23;20187;-82
2021/04/28 05:13:04;;;;;;;8.77;7.27;;;6.00;70.10;;;;;;6225704;23;20160;-83
2021/04/28 05:15:29;;;;;;;10.93;7.50;;;6.00;70.20;;;;;;6200794;23;20254;-82
2021/04/28 05:17:57;;;;;;;11.57;7.70;;;6.00;70.30;;;;;;6203306;23;20555;-82
2021/04/28 05:20:23;;;;;;;15.55;7.90;;;5.90;70.20;;;;;;6227847;23;20173;-82
2021/04/28 05:22:49;;;;;;;13.32;7.45;;;6.00;70.70;;;;;;6230361;23;20145;-82
2021/04/28 05:25:15;;;;;;;9.43;7.07;;;5.90;71.20;;;;;;6206698;23;20152;-83
2021/04/28 05:28:19;;;;;;;12.23;7.38;;;6.10;71.40;;;;;;6239642;23;20128;-83
2021/04/28 05:31:16;;;;;;;14.82;7.82;;;6.10;70.80;;;;;;6209130;23;20202;-83
2021/04/28 05:33:41;;;;;;;10.60;7.38;;;6.00;71.70;;;;;;6212661;23;20149;-83
2021/04/28 05:36:08;;;;;;;10.73;7.47;;;6.20;71.90;;;;;;6236646;23;20153;-80
2021/04/28 05:38:34;;;;;;;18.77;8.30;;;6.60;71.60;;;;;;6229010;23;20141;-81
2021/04/28 05:41:00;;;;;;;18.17;7.50;;;6.60;69.30;;;;;;6209765;23;20263;-81
2021/04/28 05:43:59;;;;;;;14.00;8.47;;;6.90;69.30;;;;;;6235481;23;20363;-80
2021/04/28 05:46:25;;;;;;;11.60;7.45;;;6.90;67.90;;;;;;6206113;23;20137;-80
2021/04/28 05:48:51;;;;;;;11.07;7.88;;;7.10;69.20;;;;;;6229832;23;20140;-81
2021/04/28 05:51:17;;;;;;;12.98;6.68;;;7.50;67.20;;;;;;6208919;23;20187;-82
2021/04/28 05:53:42;;;;;;;15.10;7.70;;;7.80;71.50;;;;;;6229723;23;20145;-81
2021/04/28 05:56:08;;;;;;;11.60;7.20;;;7.80;72.20;;;;;;6221311;23;20159;-81
2021/04/28 05:58:34;;;;;;;20.83;9.47;;;8.10;68.80;;;;;;6173401;23;20183;-82
2021/04/28 06:01:00;;;;;;;18.10;9.23;;;8.30;67.60;;;;;;6199117;23;20181;-81
2021/04/28 06:03:26;;;;;;;12.68;7.70;;;8.70;65.30;;;;;;6203812;23;20160;-80
2021/04/28 06:05:52;;;;;;;16.08;8.40;;;9.00;63.40;;;;;;6231123;23;20217;-81
2021/04/28 06:08:21;;;;;;;18.47;7.50;;;8.70;62.20;;;;;;6230401;23;20153;-83
2021/04/28 06:10:46;;;;;;;17.05;9.13;;;9.00;63.30;;;;;;6201368;23;20180;-82
2021/04/28 06:13:12;;;;;;;15.03;8.23;;;8.90;61.20;;;;;;6198720;23;20254;-81
2021/04/28 06:15:39;;;;;;;15.40;8.00;;;9.20;60.50;;;;;;6226090;23;20153;-83
2021/04/28 06:18:08;;;;;;;25.88;7.97;;;9.30;59.00;;;;;;6176212;23;20201;-83
2021/04/28 06:20:34;;;;;;;14.82;8.30;;;9.20;59.30;;;;;;6227054;23;20177;-81
2021/04/28 06:23:02;;;;;;;16.15;9.18;;;9.60;59.10;;;;;;6227717;23;20185;-83
2021/04/28 06:25:28;;;;;;;16.73;7.95;;;9.60;58.50;;;;;;6227363;23;20145;-81
2021/04/28 06:27:54;;;;;;;16.60;8.97;;;9.90;57.40;;;;;;6228031;23;20179;-83
2021/04/28 06:30:21;;;;;;;15.15;8.85;;;10.00;58.10;;;;;;6198962;23;20470;-83
2021/04/28 06:32:48;;;;;;;40.40;9.15;;;9.90;57.40;;;;;;6203197;23;20179;-82
2021/04/28 06:35:21;;;;;;;12.95;7.95;;;10.30;56.70;;;;;;6200199;23;20310;-83
2021/04/28 06:37:47;;;;;;;16.13;7.47;;;10.60;56.20;;;;;;6229457;23;20148;-82
2021/04/28 06:40:13;;;;;;;22.13;8.20;;;10.70;56.40;;;;;;6198591;23;20526;-83
2021/04/28 06:42:40;;;;;;;14.17;8.73;;;10.80;54.80;;;;;;6202113;23;20203;-82
2021/04/28 06:45:07;;;;;;;16.13;8.52;;;11.10;53.70;;;;;;6224786;23;20368;-83
2021/04/28 06:47:33;;;;;;;13.63;8.95;;;11.00;53.40;;;;;;6225724;23;20152;-83
2021/04/28 06:50:02;;;;;;;14.50;9.87;;;11.00;53.40;;;;;;6225230;23;20165;-85
2021/04/28 06:52:27;;;;;;;22.67;9.15;;;10.80;53.50;;;;;;6191339;23;20386;-84
2021/04/28 06:54:53;;;;;;;16.80;9.00;;;10.50;52.50;;;;;;6222109;23;20156;-83
2021/04/28 06:57:22;;;;;;;15.00;8.57;;;10.60;53.50;;;;;;6168924;23;20597;-81
2021/04/28 07:00:37;;;;;;;15.50;9.10;;;10.90;53.10;;;;;;6220767;23;20153;-84
2021/04/28 07:03:03;;;;;;;23.77;8.98;;;10.90;53.20;;;;;;6100739;23;20170;-81
2021/04/28 07:05:31;;;;;;;12.90;8.60;;;11.10;53.00;;;;;;6130638;23;20161;-82
2021/04/28 07:08:05;;;;;;;14.02;8.10;;;11.20;52.70;;;;;;6221581;23;20133;-82
2021/04/28 07:10:30;;;;;;;14.68;8.40;;;11.20;52.30;;;;;;6195074;23;20172;-82
2021/04/28 07:12:59;;;;;;;10.90;8.03;;;11.20;51.70;;;;;;6193873;23;20153;-84
2021/04/28 07:15:35;;;;;;;19.08;8.40;;;11.30;52.10;;;;;;6194624;23;20617;-84
2021/04/28 07:18:01;;;;;;;11.07;8.45;;;11.50;51.90;;;;;;6234009;23;20190;-83
2021/04/28 07:20:49;;;;;;;12.45;7.78;;;11.10;51.00;;;;;;6204438;23;20179;-83
2021/04/28 07:23:15;;;;;;;11.55;7.07;;;11.30;52.40;;;;;;6197749;23;20156;-83
2021/04/28 07:25:41;;;;;;;15.43;8.80;;;11.60;51.40;;;;;;6236189;23;20140;-82
2021/04/28 07:28:09;;;;;;;16.60;8.87;;;11.40;51.00;;;;;;6227618;23;20368;-83
2021/04/28 07:30:36;;;;;;;11.98;7.15;;;11.40;51.90;;;;;;6223068;23;20192;-84
2021/04/28 07:33:03;;;;;;;13.60;8.60;;;11.50;50.90;;;;;;6195956;23;20152;-83
2021/04/28 07:35:47;;;;;;;19.55;9.10;;;11.50;51.80;;;;;;6223939;23;20242;-82
2021/04/28 07:39:12;;;;;;;14.40;8.52;;;11.30;51.50;;;;;;6197061;23;20172;-84
2021/04/28 07:45:31;;;;;;;11.93;7.65;;;11.50;50.80;;;;;;6222163;23;20147;-84
2021/04/28 07:48:01;;;;;;;15.30;9.27;;;11.60;51.30;;;;;;6204171;23;20149;-83
2021/04/28 07:50:30;;;;;;;16.70;8.40;;;11.70;50.90;;;;;;6219959;23;20200;-84
2021/04/28 07:52:58;;;;;;;15.02;9.25;;;11.90;50.50;;;;;;6220873;23;20171;-84
2021/04/28 07:55:26;;;;;;;15.30;9.23;;;11.80;50.30;;;;;;6219522;23;20232;-83
2021/04/28 07:57:52;;;;;;;14.80;9.05;;;11.90;50.10;;;;;;6218896;23;20137;-83
2021/04/28 08:00:18;;;;;;;14.77;8.50;;;11.90;50.00;;;;;;6192956;23;20176;-83
2021/04/28 08:02:44;;;;;;;16.60;9.07;;;12.00;50.10;;;;;;6192751;23;20243;-83
2021/04/28 08:05:16;;;;;;;13.07;7.50;;;11.90;50.00;;;;;;6192796;23;20172;-83
2021/04/28 08:07:42;;;;;;;13.30;9.55;;;12.00;49.50;;;;;;6191518;23;20140;-84
2021/04/28 08:10:09;;;;;;;12.37;8.33;;;12.10;50.00;;;;;;6191922;23;20173;-82
2021/04/28 08:12:35;;;;;;;16.58;9.50;;;12.10;49.80;;;;;;6192327;23;20216;-83
2021/04/28 08:15:04;;;;;;;16.60;8.90;;;12.10;50.20;;;;;;6220855;23;20155;-82
2021/04/28 08:17:30;;;;;;;15.57;8.98;;;12.10;50.20;;;;;;6194104;23;20153;-83
2021/04/28 08:20:37;;;;;;;22.20;11.30;;;12.10;50.60;;;;;;6193691;23;20183;-83
2021/04/28 08:23:03;;;;;;;14.68;9.45;;;12.20;50.60;;;;;;6188605;23;20387;-83
2021/04/28 08:26:10;;;;;;;12.97;8.80;;;12.20;50.50;;;;;;6197268;23;20242;-85
2021/04/28 08:28:41;;;;;;;16.73;9.40;;;12.10;49.70;;;;;;6166315;23;20215;-84
2021/04/28 08:31:32;;;;;;;13.50;8.68;;;12.10;49.80;;;;;;6220568;23;20165;-82
2021/04/28 08:34:03;;;;;;;12.65;8.32;;;12.00;49.40;;;;;;6195180;23;20152;-83
2021/04/28 08:36:31;;;;;;;16.48;9.85;;;12.00;50.10;;;;;;6220092;23;20141;-82
2021/04/28 08:42:00;;;;;;;13.60;8.65;;;12.00;50.30;;;;;;6213464;23;20213;-83
2021/04/28 08:44:27;;;;;;;16.75;9.15;;;12.10;50.50;;;;;;6220385;23;20582;-82
2021/04/28 08:46:53;;;;;;;18.35;8.23;;;12.10;50.80;;;;;;6192584;23;20661;-83
2021/04/28 08:52:18;;;;;;;17.67;9.43;;;12.10;51.30;;;;;;6222143;23;20692;-82
2021/04/28 08:54:45;;;;;;;15.68;8.77;;;11.70;52.30;;;;;;6221132;23;20524;-82
2021/04/28 08:57:12;;;;;;;18.98;9.50;;;11.60;53.10;;;;;;6170335;23;20309;-81
2021/04/28 08:59:37;;;;;;;23.85;9.70;;;11.60;52.80;;;;;;6220324;23;20148;-82
2021/04/28 09:02:14;;;;;;;17.30;9.40;;;11.50;52.60;;;;;;6218322;23;20176;-82
2021/04/28 09:04:40;;;;;;;13.80;7.95;;;11.70;52.50;;;;;;6194021;23;20199;-82
2021/04/28 09:07:05;;;;;;;15.97;9.27;;;11.90;52.10;;;;;;6203889;23;20148;-82
2021/04/28 09:09:34;;;;;;;13.80;8.60;;;11.70;52.60;;;;;;6210890;23;20237;-83
2021/04/28 09:12:00;;;;;;;11.75;8.32;;;11.60;53.50;;;;;;6230405;23;20188;-82
2021/04/28 09:14:31;;;;;;;14.20;9.30;;;11.70;53.30;;;;;;6221285;23;20653;-83
2021/04/28 09:20:34;;;;;;;12.02;8.90;;;11.90;53.50;;;;;;6222071;23;20225;-83
2021/04/28 09:23:16;;;;;;;15.30;9.52;;;12.00;53.50;;;;;;6193992;23;20152;-83
2021/04/28 09:25:51;;;;;;;15.52;8.02;;;12.20;52.80;;;;;;6220921;23;20483;-82
2021/04/28 09:29:11;;;;;;;14.05;8.70;;;12.40;52.80;;;;;;6193313;23;20144;-82
2021/04/28 09:31:36;;;;;;;27.40;11.45;;;12.60;51.80;;;;;;6074623;23;20179;-82
2021/04/28 09:34:04;;;;;;;12.50;7.60;;;12.80;51.00;;;;;;6144399;23;20505;-83
2021/04/28 09:36:38;;;;;;;12.85;8.45;;;12.90;49.80;;;;;;6220896;23;20494;-82
2021/04/28 09:39:09;;;;;;;15.88;8.25;;;13.10;49.40;;;;;;6220968;23;20532;-83
2021/04/28 09:41:35;;;;;;;14.35;7.35;;;13.20;49.10;;;;;;6194110;23;20180;-82
2021/04/28 09:44:02;;;;;;;13.33;9.17;;;13.20;49.40;;;;;;6220910;23;20148;-82
2021/04/28 10:04:10;;;;;;;;;;;;;;;;;;;;;
2021/04/28 10:10:25;;;;;;;;;;;;;;;;;;;;;
2021/04/28 10:12:51;;;;;;;14.23;8.25;;;14.00;46.50;;;;;;6218096;23;20180;-82
2021/04/28 10:15:27;;;;;;;11.80;8.63;;;14.00;46.20;;;;;;6221100;23;20242;-83
2021/04/28 10:18:00;;;;;;;16.67;8.30;;;14.10;46.80;;;;;;6193799;23;20145;-84
2021/04/28 10:20:27;;;;;;;17.08;8.65;;;14.10;46.20;;;;;;6195441;23;20176;-87
2021/04/28 10:23:03;;;;;;;12.50;8.18;;;14.00;46.80;;;;;;6149959;23;20156;-85
2021/04/28 10:25:29;;;;;;;20.13;8.93;;;14.10;46.50;;;;;;6172170;23;20169;-84
2021/04/28 10:28:32;;;;;;;;;;;;;;;;;;;;;
2021/04/28 10:42:04;;;;;;;15.07;8.18;;;14.60;46.10;;;;;;6137461;23;20290;-84
2021/04/28 10:45:20;;;;;;;12.15;8.63;;;14.80;46.30;;;;;;6118060;23;20139;-84
2021/04/28 10:48:41;;;;;;;13.38;7.43;;;14.70;46.10;;;;;;6115316;23;20151;-84
2021/04/28 10:51:41;;;;;;;13.40;9.18;;;14.70;46.20;;;;;;6121083;23;20280;-84
2021/04/28 10:55:22;;;;;;;20.95;9.88;;;14.80;46.40;;;;;;6130335;23;20149;-83
2021/04/28 11:02:06;;;;;;;13.25;8.40;;;15.10;46.40;;;;;;6175299;23;20193;-85
2021/04/28 11:05:37;;;;;;;;;;;;;;;;;;;;;
2021/04/28 11:09:13;;;;;;;;;;;;;;;;;;;;;
2021/04/28 11:18:28;;;;;;;11.90;7.63;;;15.50;47.10;;;;;;6158872;23;20397;-83
2021/04/28 11:21:18;;;;;;;12.57;7.93;;;15.50;47.10;;;;;;6159541;23;20233;-80
2021/04/28 11:24:15;;;;;;;13.67;8.80;;;15.50;47.00;;;;;;6194579;23;20388;-83
2021/04/28 11:26:52;;;;;;;11.27;7.57;;;15.60;47.30;;;;;;6220260;23;20868;-83
2021/04/28 11:29:19;;;;;;;15.00;8.40;;;15.70;47.50;;;;;;6192930;23;20377;-82
2021/04/28 11:31:46;;;;;;;12.93;7.97;;;15.70;47.00;;;;;;6192811;23;20879;-82
2021/04/28 11:47:49;;;;;;;13.50;9.20;;;16.00;45.10;;;;;;6218108;23;20380;-84
2021/04/28 11:50:50;;;;;;;13.73;8.37;;;15.80;45.50;;;;;;6226336;23;20421;-84
2021/04/28 11:54:05;;;;;;;12.40;7.47;;;15.80;45.40;;;;;;6222912;23;20476;-86
2021/04/28 11:56:51;;;;;;;13.97;7.17;;;15.50;46.30;;;;;;6227859;23;20696;-84
2021/04/28 11:59:31;;;;;;;10.03;6.83;;;15.70;46.10;;;;;;6194475;23;20376;-84
2021/04/28 12:02:07;;;;;;;11.93;8.23;;;15.90;45.60;;;;;;6220996;23;20404;-84
2021/04/28 12:08:12;;;;;;;15.93;8.00;;;16.00;44.70;;;;;;6142121;23;20399;-84
2021/04/28 12:10:44;;;;;;;8.93;6.77;;;15.90;44.90;;;;;;6153314;23;20409;-83
2021/04/28 12:13:50;;;;;;;11.17;8.00;;;15.80;44.90;;;;;;6194706;23;20370;-83
2021/04/28 12:16:26;;;;;;;13.27;7.73;;;15.80;45.20;;;;;;6193660;23;20378;-83
2021/04/28 12:19:33;;;;;;;9.97;7.40;;;15.90;45.20;;;;;;6193721;23;20387;-84
2021/04/28 12:22:50;;;;;;;;;;;;;;;;;;;;;
2021/04/28 12:26:30;;;;;;;9.23;6.37;;;16.30;45.40;;;;;;6220685;23;20451;-84
2021/04/28 12:33:08;;;;;;;9.23;6.17;;;16.50;44.60;;;;;;6153985;23;20382;-84
2021/04/28 12:35:50;;;;;;;21.33;8.17;;;16.50;45.30;;;;;;6189843;23;20378;-85
2021/04/28 12:38:16;;;;;;;16.80;7.03;;;16.60;45.80;;;;;;6218003;23;20433;-82
2021/04/28 12:41:05;;;;;;;9.63;6.27;;;16.80;44.80;;;;;;6218397;23;20841;-82
2021/04/28 12:43:34;;;;;;;9.97;7.47;;;16.90;44.80;;;;;;6222154;23;20344;-81
2021/04/28 12:46:15;;;;;;;11.90;8.20;;;16.90;45.30;;;;;;6193108;23;20468;-84
2021/04/28 12:49:02;;;;;;;15.27;7.30;;;16.90;45.30;;;;;;6219416;23;20686;-82
2021/04/28 12:51:31;;;;;;;11.07;7.63;;;16.90;45.70;;;;;;6198388;23;20420;-84
2021/04/28 12:53:57;;;;;;;11.07;6.63;;;16.90;46.10;;;;;;6194612;23;20383;-83
2021/04/28 12:56:24;;;;;;;9.97;7.57;;;16.90;46.30;;;;;;6170322;23;20441;-83
2021/04/28 12:58:52;;;;;;;11.97;7.20;;;16.80;45.40;;;;;;6168731;23;20395;-84
2021/04/28 13:02:12;;;;;;;;;;;;;;;;;;;;;
2021/04/28 13:04:49;;;;;;;12.70;7.10;;;17.00;45.20;;;;;;6124978;23;20462;-83
2021/04/28 13:07:16;;;;;;;13.90;8.17;;;16.90;45.80;;;;;;6220713;23;20440;-83
2021/04/28 13:09:46;;;;;;;12.30;7.97;;;16.90;46.80;;;;;;6169105;23;20384;-83
2021/04/28 13:12:31;;;;;;;14.60;7.27;;;16.80;46.30;;;;;;6218126;23;20390;-83
2021/04/28 13:14:56;;;;;;;20.17;8.23;;;17.10;45.90;;;;;;6217973;23;20372;-82
2021/04/28 13:17:25;;;;;;;10.10;7.00;;;17.10;45.00;;;;;;6218942;23;20372;-83
2021/04/28 13:19:51;;;;;;;7.90;6.57;;;16.80;44.20;;;;;;6192738;23;20168;-82
2021/04/28 13:22:27;;;;;;;13.90;7.10;;;16.60;43.70;;;;;;6201007;23;20510;-82
2021/04/28 13:25:19;;;;;;;10.33;6.80;;;16.70;44.40;;;;;;6197239;23;20152;-83
2021/04/28 13:28:46;;;;;;;8.87;6.63;;;16.80;44.80;;;;;;6162514;23;20367;-84
2021/04/28 13:31:25;;;;;;;11.00;8.20;;;16.90;45.20;;;;;;6220117;23;20404;-83
2021/04/28 13:34:06;;;;;;;9.33;6.63;;;17.20;44.30;;;;;;6169126;23;20757;-84
2021/04/28 13:36:35;;;;;;;10.27;7.67;;;17.10;44.40;;;;;;6221135;23;20395;-84
2021/04/28 13:39:11;;;;;;;10.60;6.70;;;17.10;44.90;;;;;;6193593;23;20372;-83
2021/04/28 13:41:46;;;;;;;11.57;7.30;;;16.80;44.70;;;;;;6193015;23;20423;-83
2021/04/28 13:44:16;;;;;;;8.83;6.43;;;16.50;45.40;;;;;;6221074;23;20348;-83
2021/04/28 13:46:57;;;;;;;8.33;5.97;;;16.40;45.10;;;;;;6193087;23;20470;-83
2021/04/28 13:49:39;;;;;;;11.10;7.30;;;16.20;44.50;;;;;;6220577;23;20506;-82
2021/04/28 13:52:04;;;;;;;11.97;7.17;;;16.30;44.70;;;;;;6214506;23;20400;-83
2021/04/28 13:54:41;;;;;;;9.80;6.77;;;16.40;44.90;;;;;;6220738;23;20368;-84
2021/04/28 13:57:09;;;;;;;8.97;7.00;;;16.40;45.00;;;;;;6194528;23;20152;-84
2021/04/28 13:59:46;;;;;;;5.90;5.00;;;16.40;44.90;;;;;;6201168;23;20463;-83
2021/04/28 14:02:17;;;;;;;6.27;5.43;;;16.40;45.00;;;;;;6221693;23;20406;-83
2021/04/28 14:05:00;;;;;;;10.07;6.70;;;16.30;45.10;;;;;;6193274;23;20911;-82
2021/04/28 14:07:29;;;;;;;9.57;6.27;;;16.40;44.20;;;;;;6172521;23;20376;-83
2021/04/28 14:09:54;;;;;;;10.00;6.00;;;16.60;42.90;;;;;;6196929;23;20469;-82
2021/04/28 14:12:23;;;;;;;8.70;6.17;;;16.60;42.90;;;;;;6195634;23;20383;-83
2021/04/28 14:15:05;;;;;;;11.67;7.37;;;16.40;43.50;;;;;;6197221;23;20209;-83
2021/04/28 14:17:56;;;;;;;9.77;6.80;;;16.40;44.70;;;;;;6203561;23;20376;-82
2021/04/28 14:20:22;;;;;;;10.37;6.83;;;16.50;44.80;;;;;;6233223;23;20469;-82
2021/04/28 14:22:48;;;;;;;9.10;6.10;;;16.60;44.60;;;;;;6207143;23;20427;-83
2021/04/28 14:25:22;;;;;;;9.60;6.00;;;16.70;44.20;;;;;;6234087;23;20169;-83
2021/04/28 14:27:48;;;;;;;7.00;5.67;;;16.60;43.40;;;;;;6209868;23;20237;-83
2021/04/28 14:30:21;;;;;;;10.87;5.57;;;16.70;43.10;;;;;;6209296;23;20399;-82
2021/04/28 14:32:50;;;;;;;8.30;5.77;;;16.70;43.10;;;;;;6209686;23;20175;-82
2021/04/28 14:52:45;;;;;;;8.30;6.23;;;16.80;44.20;;;;;;6229103;22;20423;-83